PVV147 LUKK-RKPK
Flight info
| Callsign | PVV147 |
|---|---|
| Flight time | N/A |
| Altitude | 43000 |
| Route | POGAV DCT RAMIX DCT EVIKA DCT DINRO N743 UDROS UM859 KARDE UN644 FALAZ/N0489F390 UN644 ROLIN N644 LAGAS M747 SUBUT T916 BALUN/K0904F390 T916 DILNA/K0902F410 T916 PIGAL M610 RULAD/K0904S1250 A343 POSOT B215 NUKTI DCT IDSIP DCT DKO W69 HUR B339 LADIX W34 ANRAT A326 DONVO G597 AGAVO/N0490F410 Y644 MONSI W61 SOT Y782 KALOD |
| Aircraft | B742/H-SDFHIRWXY/L |
Departure
| Time | N/A |
|---|---|
| Airport | Chişinău International Airport (LUKK) |
Arrival
| Time | 2026-05-04 14:04 |
|---|---|
| Airport | Gimhae International Airport (RKPK) |
| Time | Latitude | Longitude | Altitude | Speed | Heading |
|---|---|---|---|---|---|
| 2026-05-04 11:31 | 40.73987 | 105.49513 | 42901 ft | 536 kts | 108° |
| 2026-05-04 11:33 | 40.64862 | 105.81468 | 42930 ft | 535 kts | 108° |
| 2026-05-04 11:33 | 40.62239 | 105.90582 | 42925 ft | 535 kts | 108° |
| 2026-05-04 11:34 | 40.59611 | 105.99679 | 42919 ft | 533 kts | 108° |
| 2026-05-04 11:34 | 40.56963 | 106.08817 | 42912 ft | 534 kts | 108° |
| 2026-05-04 11:35 | 40.54276 | 106.18056 | 42907 ft | 534 kts | 108° |
| 2026-05-04 11:35 | 40.51579 | 106.27295 | 42895 ft | 534 kts | 108° |
| 2026-05-04 11:36 | 40.48890 | 106.36474 | 42888 ft | 532 kts | 108° |
| 2026-05-04 11:36 | 40.46222 | 106.45551 | 42883 ft | 532 kts | 108° |
| 2026-05-04 11:37 | 40.43498 | 106.54787 | 42883 ft | 531 kts | 108° |
| 2026-05-04 11:37 | 40.40791 | 106.63933 | 42878 ft | 532 kts | 108° |
| 2026-05-04 11:38 | 40.38095 | 106.73013 | 42874 ft | 532 kts | 109° |
| 2026-05-04 11:38 | 40.35384 | 106.82107 | 42878 ft | 532 kts | 109° |
| 2026-05-04 11:39 | 40.32728 | 106.91132 | 42879 ft | 531 kts | 105° |
| 2026-05-04 11:40 | 40.33597 | 107.19118 | 42893 ft | 515 kts | 75° |
| 2026-05-04 11:41 | 40.34206 | 107.23764 | 42903 ft | 515 kts | 76° |
| 2026-05-04 11:41 | 40.35379 | 107.33015 | 42899 ft | 514 kts | 76° |
| 2026-05-04 11:42 | 40.36516 | 107.42277 | 42894 ft | 513 kts | 76° |
| 2026-05-04 11:42 | 40.37634 | 107.51497 | 42884 ft | 514 kts | 76° |
| 2026-05-04 11:43 | 40.38749 | 107.60757 | 42881 ft | 513 kts | 76° |
| 2026-05-04 11:43 | 40.39862 | 107.70056 | 42874 ft | 513 kts | 77° |
| 2026-05-04 11:44 | 40.40969 | 107.79375 | 42876 ft | 514 kts | 77° |
| 2026-05-04 11:44 | 40.42057 | 107.88594 | 42883 ft | 513 kts | 77° |
| 2026-05-04 11:45 | 40.43136 | 107.97827 | 42889 ft | 513 kts | 77° |
| 2026-05-04 11:45 | 40.44214 | 108.07105 | 42895 ft | 514 kts | 77° |
| 2026-05-04 11:46 | 40.45294 | 108.16480 | 42894 ft | 515 kts | 77° |
| 2026-05-04 11:46 | 40.46354 | 108.25749 | 42895 ft | 514 kts | 77° |
| 2026-05-04 11:47 | 40.47420 | 108.35153 | 42891 ft | 513 kts | 77° |
| 2026-05-04 11:47 | 40.48468 | 108.44456 | 42894 ft | 514 kts | 77° |
| 2026-05-04 11:48 | 40.49511 | 108.53773 | 42883 ft | 515 kts | 77° |
| 2026-05-04 11:48 | 40.50544 | 108.63093 | 42884 ft | 513 kts | 77° |
| 2026-05-04 11:49 | 40.51562 | 108.72343 | 42877 ft | 513 kts | 78° |
| 2026-05-04 11:49 | 40.52573 | 108.81580 | 42877 ft | 514 kts | 78° |
| 2026-05-04 11:50 | 40.53599 | 108.90887 | 42883 ft | 514 kts | 77° |
| 2026-05-04 11:50 | 40.54702 | 109.00108 | 42880 ft | 513 kts | 77° |
| 2026-05-04 11:51 | 40.55741 | 109.09343 | 42884 ft | 512 kts | 78° |
| 2026-05-04 11:51 | 40.56741 | 109.18683 | 42897 ft | 514 kts | 78° |
| 2026-05-04 11:52 | 40.57727 | 109.28050 | 42911 ft | 515 kts | 78° |
| 2026-05-04 11:52 | 40.58707 | 109.37437 | 42925 ft | 516 kts | 78° |
| 2026-05-04 11:53 | 40.59678 | 109.46806 | 42938 ft | 515 kts | 78° |
| 2026-05-04 11:53 | 40.60635 | 109.56117 | 42949 ft | 513 kts | 78° |
| 2026-05-04 11:55 | 40.64398 | 109.93763 | 42944 ft | 514 kts | 81° |
| 2026-05-04 11:56 | 40.64797 | 110.03147 | 42947 ft | 516 kts | 85° |
| 2026-05-04 11:56 | 40.64822 | 110.12687 | 42940 ft | 520 kts | 86° |
| 2026-05-04 11:57 | 40.64755 | 110.22222 | 42951 ft | 520 kts | 87° |
| 2026-05-04 11:57 | 40.64684 | 110.31808 | 42945 ft | 520 kts | 86° |
| 2026-05-04 11:58 | 40.64613 | 110.41398 | 42954 ft | 521 kts | 86° |
| 2026-05-04 11:58 | 40.64539 | 110.50960 | 42970 ft | 521 kts | 86° |
| 2026-05-04 11:59 | 40.64459 | 110.60564 | 42964 ft | 520 kts | 86° |
| 2026-05-04 11:59 | 40.64373 | 110.70103 | 42977 ft | 520 kts | 87° |
| 2026-05-04 12:00 | 40.64279 | 110.79616 | 42975 ft | 523 kts | 87° |
| 2026-05-04 12:00 | 40.64175 | 110.89126 | 42992 ft | 522 kts | 87° |
| 2026-05-04 12:01 | 40.64064 | 110.98614 | 42997 ft | 520 kts | 87° |
| 2026-05-04 12:02 | 40.63612 | 111.32134 | 42979 ft | 522 kts | 87° |
| 2026-05-04 12:03 | 40.63466 | 111.41711 | 42975 ft | 521 kts | 87° |
| 2026-05-04 12:03 | 40.63311 | 111.51311 | 42974 ft | 520 kts | 87° |
| 2026-05-04 12:04 | 40.63150 | 111.60857 | 42970 ft | 520 kts | 87° |
| 2026-05-04 12:04 | 40.62981 | 111.70417 | 42970 ft | 521 kts | 88° |
| 2026-05-04 12:05 | 40.62804 | 111.79970 | 42967 ft | 523 kts | 88° |
| 2026-05-04 12:05 | 40.62624 | 111.89479 | 42980 ft | 521 kts | 88° |
| 2026-05-04 12:06 | 40.62432 | 111.98972 | 42966 ft | 521 kts | 88° |
| 2026-05-04 12:06 | 40.62225 | 112.08440 | 42995 ft | 520 kts | 88° |
| 2026-05-04 12:07 | 40.62014 | 112.17960 | 43013 ft | 522 kts | 88° |
| 2026-05-04 12:07 | 40.61826 | 112.27589 | 43034 ft | 521 kts | 87° |
| 2026-05-04 12:08 | 40.61618 | 112.37189 | 43028 ft | 521 kts | 88° |
| 2026-05-04 12:08 | 40.61339 | 112.46709 | 43027 ft | 520 kts | 89° |
| 2026-05-04 12:09 | 40.60878 | 112.56239 | 43011 ft | 521 kts | 90° |
| 2026-05-04 12:09 | 40.60326 | 112.65789 | 43010 ft | 524 kts | 91° |
| 2026-05-04 12:10 | 40.59660 | 112.75280 | 43011 ft | 526 kts | 92° |
| 2026-05-04 12:10 | 40.58966 | 112.84805 | 43005 ft | 524 kts | 91° |
| 2026-05-04 12:11 | 40.58323 | 112.94302 | 42997 ft | 523 kts | 91° |
| 2026-05-04 12:11 | 40.57689 | 113.03847 | 42992 ft | 526 kts | 91° |
| 2026-05-04 12:12 | 40.57042 | 113.13466 | 42986 ft | 524 kts | 91° |
| 2026-05-04 12:12 | 40.56395 | 113.22935 | 42975 ft | 522 kts | 91° |
| 2026-05-04 12:14 | 40.53713 | 113.61064 | 42992 ft | 523 kts | 91° |
| 2026-05-04 12:15 | 40.53022 | 113.70599 | 43004 ft | 524 kts | 92° |
| 2026-05-04 12:15 | 40.52325 | 113.80106 | 43017 ft | 524 kts | 92° |
| 2026-05-04 12:16 | 40.51623 | 113.89580 | 43017 ft | 525 kts | 92° |
| 2026-05-04 12:16 | 40.50979 | 113.99139 | 43026 ft | 524 kts | 91° |
| 2026-05-04 12:17 | 40.50518 | 114.08623 | 43007 ft | 523 kts | 90° |
| 2026-05-04 12:17 | 40.50114 | 114.18211 | 42974 ft | 522 kts | 90° |
| 2026-05-04 12:18 | 40.49709 | 114.27778 | 42937 ft | 522 kts | 90° |
| 2026-05-04 12:18 | 40.49289 | 114.37396 | 42930 ft | 522 kts | 90° |
| 2026-05-04 12:19 | 40.48860 | 114.46980 | 42928 ft | 522 kts | 90° |
| 2026-05-04 12:19 | 40.48425 | 114.56530 | 42940 ft | 525 kts | 90° |
| 2026-05-04 12:20 | 40.47975 | 114.66209 | 42972 ft | 525 kts | 90° |
| 2026-05-04 12:20 | 40.47525 | 114.75716 | 43006 ft | 527 kts | 90° |
| 2026-05-04 12:21 | 40.47063 | 114.85311 | 42985 ft | 527 kts | 91° |
| 2026-05-04 12:21 | 40.46595 | 114.94863 | 42948 ft | 526 kts | 90° |
| 2026-05-04 12:22 | 40.46119 | 115.04418 | 42945 ft | 525 kts | 90° |
| 2026-05-04 12:22 | 40.45636 | 115.13936 | 42926 ft | 524 kts | 90° |
| 2026-05-04 12:23 | 40.45141 | 115.23578 | 42910 ft | 526 kts | 90° |
| 2026-05-04 12:23 | 40.44636 | 115.33215 | 42910 ft | 525 kts | 90° |
| 2026-05-04 12:24 | 40.44119 | 115.42919 | 42912 ft | 526 kts | 90° |
| 2026-05-04 12:24 | 40.43549 | 115.52528 | 42923 ft | 525 kts | 92° |
| 2026-05-04 12:25 | 40.42834 | 115.62147 | 42928 ft | 525 kts | 92° |
| 2026-05-04 12:25 | 40.42067 | 115.71674 | 42931 ft | 527 kts | 94° |
| 2026-05-04 12:26 | 40.41285 | 115.81210 | 42922 ft | 529 kts | 93° |
| 2026-05-04 12:26 | 40.40495 | 115.90779 | 42910 ft | 528 kts | 94° |
| 2026-05-04 12:27 | 40.39702 | 116.00292 | 42881 ft | 526 kts | 94° |
| 2026-05-04 12:27 | 40.38905 | 116.09784 | 42873 ft | 526 kts | 94° |
| 2026-05-04 12:28 | 40.38089 | 116.19389 | 42874 ft | 524 kts | 93° |
| 2026-05-04 12:28 | 40.37264 | 116.29018 | 42872 ft | 525 kts | 94° |
| 2026-05-04 12:29 | 40.36436 | 116.38595 | 42871 ft | 527 kts | 94° |
| 2026-05-04 12:29 | 40.35595 | 116.48199 | 42873 ft | 526 kts | 94° |
| 2026-05-04 12:30 | 40.34561 | 116.57761 | 42864 ft | 528 kts | 103° |
| 2026-05-04 12:30 | 40.33301 | 116.62241 | 42857 ft | 531 kts | 115° |
| 2026-05-04 12:30 | 40.31419 | 116.66463 | 42856 ft | 533 kts | 123° |
| 2026-05-04 12:31 | 40.26524 | 116.73604 | 42837 ft | 531 kts | 145° |
| 2026-05-04 12:31 | 40.23386 | 116.76145 | 42845 ft | 528 kts | 157° |
| 2026-05-04 12:31 | 40.19943 | 116.77837 | 42839 ft | 523 kts | 169° |
| 2026-05-04 12:32 | 40.09172 | 116.79546 | 42847 ft | 519 kts | 178° |
| 2026-05-04 12:33 | 40.01948 | 116.80656 | 42838 ft | 518 kts | 176° |
| 2026-05-04 12:33 | 39.94763 | 116.82024 | 42850 ft | 518 kts | 175° |
| 2026-05-04 12:34 | 39.87598 | 116.83459 | 42839 ft | 520 kts | 175° |
| 2026-05-04 12:34 | 39.80424 | 116.84910 | 42850 ft | 520 kts | 175° |
| 2026-05-04 12:35 | 39.73323 | 116.86373 | 42845 ft | 519 kts | 174° |
| 2026-05-04 12:35 | 39.66197 | 116.87851 | 42854 ft | 520 kts | 174° |
| 2026-05-04 12:36 | 39.59084 | 116.89325 | 42853 ft | 520 kts | 174° |
| 2026-05-04 12:36 | 39.51862 | 116.90819 | 42855 ft | 518 kts | 174° |
| 2026-05-04 12:37 | 39.44717 | 116.92292 | 42860 ft | 517 kts | 174° |
| 2026-05-04 12:37 | 39.37544 | 116.93767 | 42854 ft | 518 kts | 174° |
| 2026-05-04 12:38 | 39.30376 | 116.95239 | 42860 ft | 520 kts | 174° |
| 2026-05-04 12:38 | 39.23262 | 116.97316 | 42856 ft | 525 kts | 160° |
| 2026-05-04 12:39 | 39.16976 | 117.02089 | 42865 ft | 531 kts | 143° |
| 2026-05-04 12:39 | 39.14313 | 117.05350 | 42876 ft | 534 kts | 131° |
| 2026-05-04 12:39 | 39.12157 | 117.09251 | 42877 ft | 534 kts | 119° |
| 2026-05-04 12:39 | 39.10618 | 117.13640 | 42883 ft | 531 kts | 107° |
| 2026-05-04 12:40 | 39.09786 | 117.18105 | 42887 ft | 527 kts | 96° |
| 2026-05-04 12:40 | 39.09021 | 117.27197 | 42890 ft | 526 kts | 93° |
| 2026-05-04 12:41 | 39.08315 | 117.36521 | 42887 ft | 525 kts | 91° |
| 2026-05-04 12:41 | 39.08013 | 117.45927 | 42889 ft | 523 kts | 88° |
| 2026-05-04 12:42 | 39.07901 | 117.55350 | 42886 ft | 522 kts | 88° |
| 2026-05-04 12:42 | 39.07807 | 117.64796 | 42886 ft | 524 kts | 88° |
| 2026-05-04 12:43 | 39.07697 | 117.74139 | 42889 ft | 523 kts | 88° |
| 2026-05-04 12:43 | 39.07573 | 117.83431 | 42886 ft | 523 kts | 88° |
| 2026-05-04 12:44 | 39.07441 | 117.92791 | 42892 ft | 522 kts | 88° |
| 2026-05-04 12:44 | 39.07103 | 118.02062 | 42906 ft | 523 kts | 94° |
| 2026-05-04 12:45 | 39.06002 | 118.11330 | 42911 ft | 525 kts | 99° |
| 2026-05-04 12:45 | 39.04572 | 118.20473 | 42909 ft | 526 kts | 100° |
| 2026-05-04 12:46 | 39.03067 | 118.29747 | 42911 ft | 525 kts | 100° |
| 2026-05-04 12:46 | 39.01569 | 118.39026 | 42910 ft | 525 kts | 100° |
| 2026-05-04 12:47 | 39.00076 | 118.48284 | 42913 ft | 525 kts | 99° |
| 2026-05-04 12:47 | 38.98568 | 118.57616 | 42912 ft | 526 kts | 99° |
| 2026-05-04 12:48 | 38.97072 | 118.66828 | 42919 ft | 526 kts | 101° |
| 2026-05-04 12:48 | 38.95560 | 118.76080 | 42922 ft | 526 kts | 101° |
| 2026-05-04 12:49 | 38.94053 | 118.85256 | 42925 ft | 526 kts | 101° |
| 2026-05-04 12:49 | 38.92540 | 118.94418 | 42926 ft | 524 kts | 101° |
| 2026-05-04 12:50 | 38.91000 | 119.03682 | 42932 ft | 525 kts | 101° |
| 2026-05-04 12:50 | 38.89461 | 119.12900 | 42930 ft | 526 kts | 101° |
| 2026-05-04 12:51 | 38.87907 | 119.22156 | 42935 ft | 527 kts | 101° |
| 2026-05-04 12:51 | 38.86350 | 119.31381 | 42937 ft | 526 kts | 101° |
| 2026-05-04 12:52 | 38.84796 | 119.40548 | 42943 ft | 527 kts | 101° |
| 2026-05-04 12:52 | 38.83211 | 119.49843 | 42942 ft | 527 kts | 101° |
| 2026-05-04 12:53 | 38.81625 | 119.59096 | 42943 ft | 527 kts | 101° |
| 2026-05-04 12:53 | 38.80047 | 119.68258 | 42945 ft | 527 kts | 102° |
| 2026-05-04 12:54 | 38.78304 | 119.77286 | 42943 ft | 527 kts | 110° |
| 2026-05-04 12:54 | 38.76731 | 119.81541 | 42946 ft | 528 kts | 122° |
| 2026-05-04 12:54 | 38.74594 | 119.85326 | 42952 ft | 529 kts | 131° |
| 2026-05-04 12:55 | 38.69511 | 119.92094 | 42948 ft | 529 kts | 132° |
| 2026-05-04 12:55 | 38.67345 | 119.95900 | 42950 ft | 528 kts | 120° |
| 2026-05-04 12:55 | 38.65768 | 120.00079 | 42958 ft | 528 kts | 111° |
| 2026-05-04 12:56 | 38.63744 | 120.09053 | 42958 ft | 528 kts | 102° |
| 2026-05-04 12:56 | 38.62270 | 120.18264 | 42957 ft | 530 kts | 100° |
| 2026-05-04 12:57 | 38.60834 | 120.27467 | 42961 ft | 529 kts | 100° |
| 2026-05-04 12:57 | 38.59341 | 120.36775 | 42964 ft | 530 kts | 101° |
| 2026-05-04 12:58 | 38.57819 | 120.46091 | 42966 ft | 531 kts | 101° |
| 2026-05-04 12:58 | 38.56296 | 120.55386 | 42968 ft | 530 kts | 100° |
| 2026-05-04 12:59 | 38.54800 | 120.64605 | 42969 ft | 531 kts | 101° |
| 2026-05-04 12:59 | 38.53291 | 120.73886 | 42972 ft | 532 kts | 101° |
| 2026-05-04 13:00 | 38.51694 | 120.83127 | 42971 ft | 532 kts | 102° |
| 2026-05-04 13:00 | 38.50107 | 120.92269 | 42979 ft | 531 kts | 102° |
| 2026-05-04 13:01 | 38.48545 | 121.01519 | 42977 ft | 531 kts | 101° |
| 2026-05-04 13:01 | 38.46989 | 121.10863 | 42988 ft | 531 kts | 101° |
| 2026-05-04 13:02 | 38.45495 | 121.20177 | 42984 ft | 530 kts | 100° |
| 2026-05-04 13:02 | 38.44052 | 121.29484 | 42990 ft | 532 kts | 100° |
| 2026-05-04 13:03 | 38.42577 | 121.38848 | 42988 ft | 533 kts | 101° |
| 2026-05-04 13:03 | 38.41052 | 121.48128 | 42992 ft | 533 kts | 101° |
| 2026-05-04 13:04 | 38.39490 | 121.57419 | 42996 ft | 533 kts | 101° |
| 2026-05-04 13:04 | 38.37908 | 121.66750 | 43002 ft | 534 kts | 102° |
| 2026-05-04 13:05 | 38.36332 | 121.76011 | 42998 ft | 533 kts | 102° |
| 2026-05-04 13:05 | 38.34755 | 121.85241 | 43006 ft | 532 kts | 102° |
| 2026-05-04 13:06 | 38.33158 | 121.94555 | 43004 ft | 535 kts | 102° |
| 2026-05-04 13:06 | 38.31538 | 122.03745 | 43002 ft | 533 kts | 102° |
| 2026-05-04 13:07 | 38.29908 | 122.13044 | 43008 ft | 535 kts | 102° |
| 2026-05-04 13:07 | 38.28322 | 122.22330 | 43005 ft | 534 kts | 101° |
| 2026-05-04 13:08 | 38.26885 | 122.31709 | 43011 ft | 536 kts | 99° |
| 2026-05-04 13:08 | 38.25286 | 122.40952 | 43016 ft | 535 kts | 110° |
| 2026-05-04 13:08 | 38.23729 | 122.45264 | 43019 ft | 533 kts | 121° |
| 2026-05-04 13:09 | 38.21668 | 122.49125 | 43030 ft | 533 kts | 129° |
| 2026-05-04 13:09 | 38.16725 | 122.56100 | 43023 ft | 531 kts | 137° |
| 2026-05-04 13:10 | 38.11501 | 122.62698 | 43028 ft | 529 kts | 137° |
| 2026-05-04 13:10 | 38.06276 | 122.69357 | 43034 ft | 530 kts | 137° |
| 2026-05-04 13:11 | 38.01041 | 122.76129 | 43036 ft | 531 kts | 137° |
| 2026-05-04 13:11 | 37.95822 | 122.82901 | 43045 ft | 529 kts | 137° |
| 2026-05-04 13:12 | 37.90587 | 122.89678 | 43050 ft | 529 kts | 137° |
| 2026-05-04 13:12 | 37.85381 | 122.96400 | 43054 ft | 529 kts | 137° |
| 2026-05-04 13:13 | 37.80185 | 123.03093 | 43053 ft | 530 kts | 137° |
| 2026-05-04 13:13 | 37.74956 | 123.09815 | 43058 ft | 530 kts | 137° |
| 2026-05-04 13:14 | 37.69765 | 123.16475 | 43058 ft | 528 kts | 137° |
| 2026-05-04 13:14 | 37.64545 | 123.23156 | 43063 ft | 529 kts | 137° |
| 2026-05-04 13:15 | 37.59356 | 123.29813 | 43066 ft | 529 kts | 136° |
| 2026-05-04 13:15 | 37.54487 | 123.36929 | 43062 ft | 533 kts | 131° |
| 2026-05-04 13:16 | 37.49968 | 123.44363 | 43072 ft | 533 kts | 129° |
| 2026-05-04 13:16 | 37.45528 | 123.51860 | 43074 ft | 533 kts | 129° |
| 2026-05-04 13:17 | 37.41047 | 123.59391 | 43072 ft | 533 kts | 129° |
| 2026-05-04 13:17 | 37.36559 | 123.66891 | 43067 ft | 533 kts | 130° |
| 2026-05-04 13:18 | 37.32093 | 123.74331 | 43078 ft | 532 kts | 130° |
| 2026-05-04 13:18 | 37.27642 | 123.81725 | 43080 ft | 532 kts | 130° |
| 2026-05-04 13:19 | 37.23208 | 123.89078 | 43090 ft | 533 kts | 130° |
| 2026-05-04 13:19 | 37.18963 | 123.96724 | 43078 ft | 536 kts | 119° |
| 2026-05-04 13:19 | 37.17596 | 124.01006 | 43086 ft | 538 kts | 107° |
| 2026-05-04 13:20 | 37.16885 | 124.05616 | 43089 ft | 540 kts | 95° |
| 2026-05-04 13:20 | 37.16911 | 124.14980 | 43089 ft | 544 kts | 86° |
| 2026-05-04 13:21 | 37.17404 | 124.24406 | 43090 ft | 544 kts | 86° |
| 2026-05-04 13:21 | 37.17764 | 124.33855 | 43091 ft | 543 kts | 87° |
| 2026-05-04 13:22 | 37.18010 | 124.43312 | 43092 ft | 544 kts | 88° |
| 2026-05-04 13:22 | 37.18228 | 124.52875 | 43091 ft | 544 kts | 88° |
| 2026-05-04 13:23 | 37.18438 | 124.62388 | 43091 ft | 544 kts | 88° |
| 2026-05-04 13:23 | 37.18642 | 124.71834 | 43095 ft | 543 kts | 88° |
| 2026-05-04 13:24 | 37.18840 | 124.81345 | 43091 ft | 544 kts | 88° |
| 2026-05-04 13:24 | 37.19030 | 124.90769 | 43096 ft | 544 kts | 88° |
| 2026-05-04 13:25 | 37.19303 | 125.05020 | 43093 ft | 544 kts | 88° |
| 2026-05-04 13:25 | 37.19474 | 125.14520 | 43097 ft | 546 kts | 88° |
| 2026-05-04 13:26 | 37.19651 | 125.24033 | 43093 ft | 547 kts | 88° |
| 2026-05-04 13:26 | 37.19665 | 125.33602 | 43089 ft | 546 kts | 97° |
| 2026-05-04 13:27 | 37.18918 | 125.38183 | 43099 ft | 543 kts | 109° |
| 2026-05-04 13:27 | 37.17473 | 125.42572 | 43094 ft | 541 kts | 121° |
| 2026-05-04 13:27 | 37.13396 | 125.50356 | 43096 ft | 539 kts | 127° |
| 2026-05-04 13:28 | 37.09425 | 125.58371 | 43095 ft | 540 kts | 122° |
| 2026-05-04 13:28 | 37.05829 | 125.66685 | 43098 ft | 541 kts | 121° |
| 2026-05-04 13:29 | 37.02390 | 125.75071 | 43096 ft | 540 kts | 120° |
| 2026-05-04 13:29 | 36.98935 | 125.83536 | 43093 ft | 543 kts | 120° |
| 2026-05-04 13:30 | 36.95452 | 125.92027 | 43097 ft | 545 kts | 121° |
| 2026-05-04 13:30 | 36.92004 | 126.00404 | 43095 ft | 542 kts | 121° |
| 2026-05-04 13:31 | 36.88512 | 126.08857 | 43084 ft | 542 kts | 121° |
| 2026-05-04 13:31 | 36.85045 | 126.17230 | 43105 ft | 544 kts | 120° |
| 2026-05-04 13:32 | 36.81560 | 126.25623 | 43098 ft | 544 kts | 121° |
| 2026-05-04 13:32 | 36.78051 | 126.34060 | 43111 ft | 543 kts | 121° |
| 2026-05-04 13:33 | 36.76278 | 126.38310 | 42792 ft | 550 kts | 121° |
| 2026-05-04 13:33 | 36.74501 | 126.42560 | 42294 ft | 554 kts | 121° |
| 2026-05-04 13:33 | 36.72739 | 126.46777 | 41812 ft | 552 kts | 121° |
| 2026-05-04 13:33 | 36.70972 | 126.51003 | 41325 ft | 548 kts | 121° |
| 2026-05-04 13:34 | 36.69215 | 126.55203 | 40830 ft | 542 kts | 121° |
| 2026-05-04 13:34 | 36.67463 | 126.59355 | 40227 ft | 541 kts | 121° |
| 2026-05-04 13:34 | 36.65711 | 126.63466 | 39624 ft | 542 kts | 121° |
| 2026-05-04 13:34 | 36.63926 | 126.67622 | 39004 ft | 544 kts | 122° |
| 2026-05-04 13:35 | 36.62133 | 126.71776 | 38391 ft | 543 kts | 122° |
| 2026-05-04 13:35 | 36.58624 | 126.80007 | 37145 ft | 539 kts | 121° |
| 2026-05-04 13:35 | 36.56908 | 126.84132 | 36530 ft | 538 kts | 121° |
| 2026-05-04 13:36 | 36.55224 | 126.88205 | 35927 ft | 536 kts | 121° |
| 2026-05-04 13:36 | 36.53516 | 126.92309 | 35438 ft | 535 kts | 120° |
| 2026-05-04 13:36 | 36.51797 | 126.96410 | 34905 ft | 534 kts | 120° |
| 2026-05-04 13:36 | 36.50069 | 127.00497 | 34365 ft | 534 kts | 120° |
| 2026-05-04 13:37 | 36.48341 | 127.04565 | 33794 ft | 535 kts | 120° |
| 2026-05-04 13:37 | 36.46580 | 127.08695 | 33183 ft | 535 kts | 120° |
| 2026-05-04 13:37 | 36.44852 | 127.12739 | 32580 ft | 534 kts | 120° |
| 2026-05-04 13:37 | 36.43683 | 127.15472 | 32168 ft | 534 kts | 120° |
| 2026-05-04 13:38 | 36.41372 | 127.20873 | 31349 ft | 532 kts | 120° |
| 2026-05-04 13:38 | 36.39643 | 127.24908 | 30733 ft | 524 kts | 119° |
| 2026-05-04 13:38 | 36.37944 | 127.28872 | 30100 ft | 516 kts | 119° |
| 2026-05-04 13:38 | 36.36281 | 127.32745 | 29440 ft | 508 kts | 119° |
| 2026-05-04 13:39 | 36.34629 | 127.36588 | 28774 ft | 502 kts | 119° |
| 2026-05-04 13:39 | 36.32995 | 127.40384 | 28112 ft | 497 kts | 118° |
| 2026-05-04 13:39 | 36.31379 | 127.44134 | 27450 ft | 492 kts | 118° |
| 2026-05-04 13:39 | 36.29776 | 127.47848 | 26792 ft | 487 kts | 118° |
| 2026-05-04 13:40 | 36.28189 | 127.51520 | 26158 ft | 480 kts | 118° |
| 2026-05-04 13:40 | 36.26648 | 127.55086 | 25767 ft | 471 kts | 118° |
| 2026-05-04 13:40 | 36.25109 | 127.58644 | 25384 ft | 469 kts | 118° |
| 2026-05-04 13:40 | 36.23557 | 127.62228 | 25168 ft | 468 kts | 118° |
| 2026-05-04 13:41 | 36.22020 | 127.65774 | 25131 ft | 469 kts | 118° |
| 2026-05-04 13:41 | 36.20482 | 127.69319 | 25129 ft | 471 kts | 118° |
| 2026-05-04 13:41 | 36.18918 | 127.72917 | 25122 ft | 471 kts | 118° |
| 2026-05-04 13:42 | 36.15812 | 127.80058 | 25117 ft | 472 kts | 119° |
| 2026-05-04 13:42 | 36.14262 | 127.83614 | 25118 ft | 473 kts | 119° |
| 2026-05-04 13:42 | 36.12634 | 127.87188 | 25058 ft | 475 kts | 123° |
| 2026-05-04 13:42 | 36.10606 | 127.90381 | 24564 ft | 477 kts | 135° |
| 2026-05-04 13:43 | 36.08109 | 127.93043 | 24050 ft | 468 kts | 144° |
| 2026-05-04 13:43 | 36.05537 | 127.95390 | 23542 ft | 458 kts | 146° |
| 2026-05-04 13:43 | 36.02983 | 127.97731 | 23025 ft | 452 kts | 144° |
| 2026-05-04 13:43 | 36.00515 | 128.00117 | 22508 ft | 449 kts | 142° |
| 2026-05-04 13:44 | 35.98128 | 128.02545 | 21999 ft | 447 kts | 141° |
| 2026-05-04 13:44 | 35.95748 | 128.05048 | 21438 ft | 444 kts | 140° |
| 2026-05-04 13:44 | 35.93424 | 128.07533 | 20796 ft | 440 kts | 139° |
| 2026-05-04 13:44 | 35.91156 | 128.09976 | 20151 ft | 435 kts | 139° |
| 2026-05-04 13:45 | 35.88885 | 128.12425 | 19503 ft | 429 kts | 138° |
| 2026-05-04 13:45 | 35.86656 | 128.14828 | 18860 ft | 424 kts | 138° |
| 2026-05-04 13:45 | 35.84436 | 128.17217 | 18213 ft | 419 kts | 137° |
| 2026-05-04 13:45 | 35.82270 | 128.19547 | 17504 ft | 416 kts | 137° |
| 2026-05-04 13:46 | 35.80091 | 128.21890 | 16740 ft | 414 kts | 138° |
| 2026-05-04 13:46 | 35.77943 | 128.24196 | 15983 ft | 412 kts | 138° |
| 2026-05-04 13:46 | 35.75780 | 128.26515 | 15215 ft | 410 kts | 138° |
| 2026-05-04 13:46 | 35.73633 | 128.28815 | 14461 ft | 408 kts | 138° |
| 2026-05-04 13:47 | 35.71514 | 128.31084 | 13700 ft | 406 kts | 138° |
| 2026-05-04 13:47 | 35.69385 | 128.33359 | 12986 ft | 402 kts | 138° |
| 2026-05-04 13:47 | 35.67324 | 128.35561 | 12605 ft | 389 kts | 138° |
| 2026-05-04 13:47 | 35.65310 | 128.37714 | 12246 ft | 378 kts | 138° |
| 2026-05-04 13:48 | 35.63370 | 128.39784 | 12058 ft | 365 kts | 138° |
| 2026-05-04 13:48 | 35.61441 | 128.41844 | 12011 ft | 370 kts | 138° |
| 2026-05-04 13:48 | 35.59479 | 128.43938 | 12006 ft | 371 kts | 138° |
| 2026-05-04 13:48 | 35.57708 | 128.45824 | 12002 ft | 371 kts | 138° |
| 2026-05-04 13:49 | 35.55768 | 128.47888 | 12003 ft | 372 kts | 138° |
| 2026-05-04 13:49 | 35.53798 | 128.49983 | 12008 ft | 372 kts | 138° |
| 2026-05-04 13:49 | 35.51857 | 128.52046 | 12007 ft | 372 kts | 138° |
| 2026-05-04 13:49 | 35.49893 | 128.54132 | 12003 ft | 372 kts | 138° |
| 2026-05-04 13:50 | 35.47927 | 128.56221 | 12001 ft | 372 kts | 138° |
| 2026-05-04 13:50 | 35.45985 | 128.58292 | 12000 ft | 372 kts | 137° |
| 2026-05-04 13:50 | 35.43993 | 128.60370 | 11652 ft | 378 kts | 142° |
| 2026-05-04 13:50 | 35.41698 | 128.61931 | 11144 ft | 374 kts | 157° |
| 2026-05-04 13:51 | 35.39299 | 128.63016 | 10647 ft | 368 kts | 161° |
| 2026-05-04 13:51 | 35.36876 | 128.64024 | 10124 ft | 363 kts | 161° |
| 2026-05-04 13:51 | 35.34513 | 128.64996 | 9603 ft | 358 kts | 161° |
| 2026-05-04 13:51 | 35.32168 | 128.65958 | 9246 ft | 348 kts | 162° |
| 2026-05-04 13:52 | 35.27787 | 128.67750 | 9169 ft | 312 kts | 162° |
| 2026-05-04 13:52 | 35.25784 | 128.68570 | 9028 ft | 304 kts | 162° |
| 2026-05-04 13:52 | 35.23754 | 128.69400 | 8526 ft | 309 kts | 162° |
| 2026-05-04 13:53 | 35.21702 | 128.70233 | 8074 ft | 308 kts | 162° |
| 2026-05-04 13:53 | 35.19692 | 128.71046 | 7655 ft | 305 kts | 162° |
| 2026-05-04 13:53 | 35.17672 | 128.71858 | 7230 ft | 303 kts | 162° |
| 2026-05-04 13:54 | 35.13710 | 128.73433 | 6438 ft | 296 kts | 162° |
| 2026-05-04 13:54 | 35.11778 | 128.74196 | 6062 ft | 292 kts | 162° |
| 2026-05-04 13:54 | 35.07939 | 128.75702 | 5310 ft | 286 kts | 162° |
| 2026-05-04 13:55 | 35.06070 | 128.76433 | 5082 ft | 277 kts | 162° |
| 2026-05-04 13:55 | 35.02398 | 128.77863 | 5001 ft | 277 kts | 162° |
| 2026-05-04 13:55 | 35.00570 | 128.78574 | 5002 ft | 278 kts | 162° |
| 2026-05-04 13:56 | 34.98711 | 128.79295 | 5000 ft | 278 kts | 162° |
| 2026-05-04 13:56 | 34.96862 | 128.80013 | 5001 ft | 278 kts | 162° |
| 2026-05-04 13:56 | 34.93178 | 128.81442 | 5004 ft | 278 kts | 162° |
| 2026-05-04 13:57 | 34.91330 | 128.82196 | 4993 ft | 277 kts | 155° |
| 2026-05-04 13:57 | 34.89832 | 128.83603 | 4996 ft | 275 kts | 125° |
| 2026-05-04 13:58 | 34.90433 | 128.89627 | 4046 ft | 254 kts | 33° |
| 2026-05-04 13:58 | 34.93419 | 128.91756 | 3401 ft | 243 kts | 37° |
| 2026-05-04 13:58 | 34.94652 | 128.93098 | 3321 ft | 239 kts | 41° |
| 2026-05-04 13:59 | 34.95852 | 128.94540 | 3302 ft | 241 kts | 42° |
| 2026-05-04 13:59 | 34.97213 | 128.95638 | 3293 ft | 227 kts | 16° |
| 2026-05-04 13:59 | 35.00126 | 128.95953 | 3178 ft | 212 kts | 356° |
| 2026-05-04 14:00 | 35.01600 | 128.95813 | 2940 ft | 209 kts | 354° |
| 2026-05-04 14:00 | 35.04386 | 128.95453 | 2399 ft | 193 kts | 353° |
| 2026-05-04 14:00 | 35.05667 | 128.95285 | 2174 ft | 175 kts | 353° |
| 2026-05-04 14:01 | 35.06833 | 128.95134 | 1983 ft | 162 kts | 353° |
| 2026-05-04 14:01 | 35.07897 | 128.94997 | 1836 ft | 143 kts | 353° |
| 2026-05-04 14:01 | 35.09764 | 128.94754 | 1342 ft | 127 kts | 354° |
| 2026-05-04 14:02 | 35.10640 | 128.94640 | 1176 ft | 124 kts | 354° |
| 2026-05-04 14:02 | 35.11501 | 128.94530 | 1038 ft | 124 kts | 354° |
| 2026-05-04 14:02 | 35.12361 | 128.94418 | 874 ft | 125 kts | 354° |
| 2026-05-04 14:02 | 35.13231 | 128.94307 | 708 ft | 125 kts | 354° |
| 2026-05-04 14:03 | 35.14111 | 128.94194 | 542 ft | 126 kts | 354° |
| 2026-05-04 14:03 | 35.14988 | 128.94080 | 374 ft | 127 kts | 355° |
| 2026-05-04 14:03 | 35.15874 | 128.93965 | 201 ft | 128 kts | 354° |
| 2026-05-04 14:03 | 35.16767 | 128.93848 | 43 ft | 128 kts | 355° |
| 2026-05-04 14:04 | 35.18189 | 128.93671 | 25 ft | 63 kts | 354° |
| 2026-05-04 14:04 | 35.18480 | 128.93633 | 25 ft | 23 kts | 354° |
| 2026-05-04 14:04 | 35.18582 | 128.93700 | 25 ft | 17 kts | 83° |
| 2026-05-04 14:05 | 35.18604 | 128.93988 | 25 ft | 16 kts | 84° |
| 2026-05-04 14:05 | 35.18586 | 128.94112 | 25 ft | 14 kts | 156° |
| 2026-05-04 14:05 | 35.18488 | 128.94125 | 25 ft | 14 kts | 173° |
| 2026-05-04 14:06 | 35.18388 | 128.94139 | 25 ft | 14 kts | 173° |
| 2026-05-04 14:06 | 35.18269 | 128.94156 | 25 ft | 19 kts | 174° |
| 2026-05-04 14:06 | 35.18113 | 128.94176 | 25 ft | 24 kts | 173° |
| 2026-05-04 14:06 | 35.17936 | 128.94199 | 25 ft | 26 kts | 174° |
| 2026-05-04 14:07 | 35.17796 | 128.94215 | 25 ft | 16 kts | 167° |
| 2026-05-04 14:07 | 35.17750 | 128.94290 | 25 ft | 12 kts | 110° |
| 2026-05-04 14:07 | 35.17712 | 128.94408 | 24 ft | 16 kts | 112° |
| 2026-05-04 14:07 | 35.17703 | 128.94536 | 25 ft | 15 kts | 57° |
| 2026-05-04 14:08 | 35.17747 | 128.94615 | 26 ft | 8 kts | 58° |
| 2026-05-04 14:08 | 35.17788 | 128.94664 | 27 ft | 7 kts | 7° |
| 2026-05-04 14:08 | 35.17831 | 128.94658 | 27 ft | 5 kts | 17° |
| 2026-05-04 14:08 | 35.17856 | 128.94691 | 27 ft | 5 kts | 62° |
| 2026-05-04 14:09 | 35.17872 | 128.94727 | 27 ft | 0 kts | 59° |